ADDS METAR Data INFO
IDs: Format: Raw Decoded Include TAF

Data at: 1527 UTC 18 Jun 2018

KGUP 181453Z AUTO 23012G17KT 10SM CLR 19/04 A3021 RMK AO2 SLP077 T01940039 51011
KGUP 181353Z AUTO VRB03KT 10SM CLR 16/07 A3021 RMK AO2 SLP078 T01560072
KGUP 181253Z AUTO 00000KT 10SM CLR 10/06 A3019 RMK AO2 SLP092 T01000061
KGUP 181153Z AUTO 00000KT 10SM CLR 09/05 A3018 RMK AO2 SLP086 T00890050 10172 20083 53009
KGUP 181053Z AUTO 17003KT 10SM CLR 09/05 A3016 RMK AO2 SLP082 T00890050
KGUP 180953Z AUTO 00000KT 10SM CLR 12/04 A3015 RMK AO2 SLP065 T01170044
KGUP 180853Z AUTO 20006KT 10SM CLR 13/04 A3014 RMK AO2 SLP061 T01280044 51003
KGUP 180753Z AUTO 20007KT 10SM CLR 13/04 A3014 RMK AO2 SLP065 T01330044
KGUP 180653Z AUTO 21009KT 10SM CLR 16/04 A3014 RMK AO2 SLP061 T01560039 402610122
KGUP 180553Z AUTO 22010KT 10SM CLR 17/03 A3013 RMK AO2 SLP062 T01670033 10256 20167 51017
KGUP 180453Z AUTO 22008KT 10SM CLR 17/04 A3013 RMK AO2 SLP060 T01720044
KGUP 180353Z AUTO 21006KT 10SM CLR 18/05 A3011 RMK AO2 SLP061 T01780050
KGUP 180253Z AUTO 25010KT 10SM CLR 21/04 A3007 RMK AO2 SLP040 T02060044 53006
KGUP 180153Z AUTO 24013G20KT 10SM CLR 23/01 A3006 RMK AO2 SLP031 T02330011
KGUP 180053Z AUTO 23013G22KT 10SM CLR 24/02 A3005 RMK AO2 SLP028 T02440017
KGUP 172353Z AUTO 23014G23KT 10SM CLR 26/02 A3005 RMK AO2 SLP028 T02560022 10261 20200 58007
KGUP 172253Z AUTO 25018G24KT 10SM CLR 26/03 A3006 RMK AO2 SLP025 T02560033
KGUP 172153Z AUTO 24013G21KT 10SM CLR 26/03 A3007 RMK AO2 SLP031 T02560033
KGUP 172053Z AUTO 21015G21KT 10SM CLR 24/04 A3008 RMK AO2 WSHFT 2005 SLP037 T02440039 58010
KGUP 172025Z AUTO 25014G21KT 10SM CLR 24/04 A3008 RMK AO2 WSHFT 2005 T02390044
KGUP 171953Z AUTO 24012G22KT 10SM CLR 23/05 A3009 RMK AO2 SLP046 T02280050
KGUP 171853Z AUTO 23015G20KT 10SM CLR 22/06 A3011 RMK AO2 SLP056 T02220056
KGUP 171753Z AUTO 24013G21KT 10SM CLR 20/07 A3011 RMK AO2 SLP064 T02000072 10200 20122 58001
KGUP 171653Z AUTO 23014KT 10SM FEW033 SCT041 SCT090 19/10 A3011 RMK AO2 SLP069 T01890100
KGUP 171553Z AUTO 23012G20KT 10SM SCT028 17/11 A3012 RMK AO2 SLP079 T01670106
KGUP 171541Z AUTO 26016G23KT 10SM BKN028 17/11 A3011 RMK AO2 T01670106
KGUP 171453Z AUTO 25012KT 10SM CLR 16/09 A3012 RMK AO2 SLP083 T01560094 51014
KGUP 171353Z AUTO 22012KT 10SM SCT018 14/12 A3011 RMK AO2 SLP089 T01390117
KGUP 171253Z AUTO 22006KT 10SM FEW027 SCT065 OVC090 13/11 A3009 RMK AO2 SLP074 T01280111
KGUP 171153Z AUTO 21004KT 10SM FEW016 SCT032 12/12 A3007 RMK AO2 SLP061 60009 70042 T01220117 10139 20122 53004
KGUP 171053Z AUTO 21006KT 10SM SCT019 BKN060 OVC085 13/12 A3006 RMK AO2 SLP054 T01280117
KGUP 170953Z AUTO 23008KT 10SM OVC050 13/12 A3005 RMK AO2 SLP054 T01330122
KGUP 170853Z AUTO 23009KT 10SM SCT037 OVC046 13/12 A3005 RMK AO2 RAE34 SLP051 P0008 60009 T01330122 53002
KGUP 170831Z AUTO 23006KT 10SM -RA FEW018 BKN036 OVC047 13/13 A3005 RMK AO2 P0008 T01330128
KGUP 170822Z AUTO 25009KT 2 1/2SM +RA BR SCT017 BKN024 OVC037 13/12 A3005 RMK AO2 P0008 T01280122
KGUP 170810Z AUTO 21011KT 7SM -RA SCT016 BKN024 OVC048 13/13 A3005 RMK AO2 P0001 T01330128
KGUP 170753Z AUTO 22008KT 9SM -RA FEW012 BKN043 OVC050 13/13 A3004 RMK AO2 RAB15 SLP053 P0001 T01330128
KGUP 170723Z AUTO 22011G16KT 10SM -RA BKN015 BKN025 OVC040 14/13 A3004 RMK AO2 RAB15 P0000 T01390128
KGUP 170653Z AUTO 21007KT 10SM BKN036 BKN045 OVC090 13/12 A3005 RMK AO2 SLP054 T01330122 402000133
KGUP 170625Z AUTO 22009KT 10SM SCT016 OVC034 14/12 A3005 RMK AO2 T01390122
KGUP 170553Z AUTO 23005KT 10SM SCT012 BKN025 OVC035 14/13 A3004 RMK AO2 SLP058 60004 T01390128 10194 20139 50013
KGUP 170546Z AUTO 22005KT 10SM BKN012 BKN033 OVC090 14/13 A3004 RMK AO2 T01390128
KGUP 170529Z AUTO 20005KT 10SM SCT012 BKN028 OVC070 14/13 A3005 RMK AO2 T01390128
KGUP 170453Z AUTO 21005KT 10SM FEW049 BKN065 OVC080 14/13 A3005 RMK AO2 SLP068 T01390128
KGUP 170353Z AUTO 22007KT 10SM FEW027 BKN042 OVC050 14/13 A3002 RMK AO2 RAB35E50 SLP055 P0000 T01390128